createdAt,value
2022-12-04T00:00:31.060Z,79.10
2022-12-04T00:01:31.138Z,83.50
2022-12-04T00:02:31.078Z,81.40
2022-12-04T00:03:31.025Z,72.10
2022-12-04T00:04:31.078Z,75.90
2022-12-04T00:05:31.007Z,77.00
2022-12-04T00:06:32.048Z,82.10
2022-12-04T00:07:31.038Z,79.00
2022-12-04T00:08:30.983Z,86.10
2022-12-04T00:09:30.964Z,80.40
2022-12-04T00:10:30.976Z,89.10
2022-12-04T00:11:30.979Z,79.10
2022-12-04T00:12:30.920Z,80.40
2022-12-04T00:13:30.921Z,81.00
2022-12-04T00:14:30.916Z,79.80
2022-12-04T00:15:30.903Z,75.60
2022-12-04T00:16:30.999Z,80.30
2022-12-04T00:17:30.913Z,78.70
2022-12-04T00:18:30.837Z,78.40
2022-12-04T00:19:30.845Z,83.50
2022-12-04T00:20:30.849Z,78.80
2022-12-04T00:21:30.833Z,81.70
2022-12-04T00:22:30.837Z,78.60
2022-12-04T00:23:30.809Z,78.20
2022-12-04T00:24:30.781Z,75.10
2022-12-04T00:25:30.783Z,77.40
2022-12-04T00:26:30.786Z,79.80
2022-12-04T00:27:30.750Z,80.40
2022-12-04T00:28:30.809Z,77.70
2022-12-04T00:29:30.744Z,81.90
2022-12-04T00:30:30.736Z,79.60
2022-12-04T00:31:30.789Z,78.90
2022-12-04T00:32:30.833Z,78.00
2022-12-04T00:33:30.709Z,82.30
2022-12-04T00:34:30.678Z,79.60
2022-12-04T00:35:30.670Z,80.00
2022-12-04T00:36:30.684Z,80.30
2022-12-04T00:37:30.669Z,75.50
2022-12-04T00:38:30.654Z,80.30
2022-12-04T00:39:30.655Z,85.20
2022-12-04T00:40:30.627Z,79.80
2022-12-04T00:41:30.622Z,76.50
2022-12-04T00:42:30.593Z,76.90
2022-12-04T00:43:30.602Z,81.90
2022-12-04T00:44:30.579Z,79.40
2022-12-04T00:45:30.794Z,75.90
2022-12-04T00:46:30.541Z,77.50
2022-12-04T00:47:30.541Z,77.10
2022-12-04T00:48:30.546Z,76.40
2022-12-04T00:49:30.514Z,79.50
2022-12-04T00:50:30.530Z,75.50
2022-12-04T00:51:30.511Z,76.80
2022-12-04T00:52:30.527Z,79.80
2022-12-04T00:53:30.482Z,76.50
2022-12-04T00:54:30.478Z,75.50
2022-12-04T00:55:30.476Z,76.30
2022-12-04T00:56:30.959Z,75.20
2022-12-04T00:57:30.442Z,77.50
2022-12-04T00:58:30.444Z,77.80
2022-12-04T00:59:30.430Z,74.70
2022-12-04T01:00:30.416Z,73.80
2022-12-04T01:01:30.503Z,78.50
2022-12-04T01:02:30.493Z,72.50
2022-12-04T01:03:30.432Z,73.00
2022-12-04T01:04:30.363Z,78.40
2022-12-04T01:05:30.359Z,73.20
2022-12-04T01:06:30.368Z,73.20
2022-12-04T01:07:30.419Z,75.30
2022-12-04T01:08:30.324Z,70.00
2022-12-04T01:09:30.326Z,72.40
2022-12-04T01:10:30.315Z,71.20
2022-12-04T01:11:30.319Z,75.20
2022-12-04T01:12:30.291Z,73.60
2022-12-04T01:13:30.263Z,73.10
2022-12-04T01:14:30.268Z,72.50
2022-12-04T01:15:30.249Z,76.40
2022-12-04T01:16:30.320Z,71.10
2022-12-04T01:17:30.243Z,70.90
2022-12-04T01:18:30.215Z,67.60
2022-12-04T01:19:30.272Z,66.50
2022-12-04T01:20:30.208Z,67.40
2022-12-04T01:21:30.175Z,67.20
2022-12-04T01:22:30.200Z,67.30
2022-12-04T01:23:30.220Z,72.80
2022-12-04T01:24:30.140Z,65.40
2022-12-04T01:25:30.124Z,65.30
2022-12-04T01:26:30.141Z,69.50
2022-12-04T01:27:30.123Z,69.40
2022-12-04T01:28:30.113Z,68.40
2022-12-04T01:29:30.092Z,66.80
2022-12-04T01:30:30.095Z,65.90
2022-12-04T01:31:30.152Z,68.50
2022-12-04T01:32:30.114Z,66.10
2022-12-04T01:33:30.059Z,68.00
2022-12-04T01:34:30.046Z,65.00
2022-12-04T01:35:30.047Z,63.30
2022-12-04T01:36:30.955Z,64.80
2022-12-04T01:37:30.053Z,64.20
2022-12-04T01:38:30.004Z,61.60
2022-12-04T01:39:30.824Z,58.60
2022-12-04T01:40:29.978Z,62.00
2022-12-04T01:41:29.987Z,59.60
2022-12-04T01:42:29.984Z,59.20
2022-12-04T01:43:29.953Z,58.30
2022-12-04T01:44:29.937Z,56.50
2022-12-04T01:45:29.968Z,55.30
2022-12-04T01:46:29.996Z,53.50
2022-12-04T01:47:29.917Z,60.00
2022-12-04T01:48:29.916Z,55.40
2022-12-04T01:49:29.906Z,56.30
2022-12-04T01:50:29.900Z,53.60
2022-12-04T01:51:29.882Z,56.90
2022-12-04T01:52:29.869Z,61.50
2022-12-04T01:53:29.848Z,56.30
2022-12-04T01:54:29.859Z,61.70
2022-12-04T01:55:29.820Z,55.30
2022-12-04T01:56:29.812Z,60.10
2022-12-04T01:57:29.822Z,53.80
2022-12-04T01:58:29.801Z,50.20
2022-12-04T01:59:29.817Z,57.20
2022-12-04T02:00:29.794Z,54.10
2022-12-04T02:01:29.792Z,51.00
2022-12-04T02:02:29.765Z,50.10
2022-12-04T02:03:29.736Z,52.70
2022-12-04T02:04:29.741Z,54.90
2022-12-04T02:05:29.734Z,47.60
2022-12-04T02:06:29.709Z,43.20
2022-12-04T02:07:29.738Z,41.20
2022-12-04T02:08:29.682Z,42.20
2022-12-04T02:09:29.678Z,42.10
2022-12-04T02:10:29.659Z,40.70
2022-12-04T02:11:29.653Z,37.30
2022-12-04T02:12:29.650Z,35.40
2022-12-04T02:13:29.639Z,30.90
2022-12-04T02:14:29.630Z,31.70
2022-12-04T02:15:29.601Z,32.50
2022-12-04T02:16:29.613Z,31.60
2022-12-04T02:17:29.597Z,34.20
2022-12-04T02:18:29.634Z,34.40
2022-12-04T02:19:29.561Z,30.90
2022-12-04T02:20:29.570Z,34.70
2022-12-04T02:21:29.534Z,31.90
2022-12-04T02:22:29.953Z,32.70
2022-12-04T02:23:29.515Z,34.10
2022-12-04T02:24:29.502Z,33.20
2022-12-04T02:25:29.497Z,34.40
2022-12-04T02:26:29.478Z,34.50
2022-12-04T02:27:29.496Z,35.40
2022-12-04T02:28:29.458Z,33.50
2022-12-04T02:29:29.450Z,33.30
2022-12-04T02:30:29.488Z,34.20
2022-12-04T02:31:29.434Z,38.30
2022-12-04T02:32:29.431Z,36.90
2022-12-04T02:33:29.422Z,36.50
2022-12-04T02:34:29.390Z,35.10
2022-12-04T02:35:29.390Z,35.80
2022-12-04T02:36:30.374Z,35.30
2022-12-04T02:37:29.379Z,35.10
2022-12-04T02:38:29.379Z,31.30
2022-12-04T02:39:29.342Z,36.80
2022-12-04T02:40:29.442Z,34.70
2022-12-04T02:41:29.325Z,34.10
2022-12-04T02:42:29.331Z,34.50
2022-12-04T02:43:29.295Z,35.70
2022-12-04T02:44:29.293Z,36.20
2022-12-04T02:45:29.297Z,34.80
2022-12-04T02:46:29.352Z,35.50
2022-12-04T02:47:29.247Z,35.50
2022-12-04T02:48:29.232Z,32.40
2022-12-04T02:49:29.233Z,33.00
2022-12-04T02:50:29.238Z,31.50
2022-12-04T02:51:29.219Z,34.30
2022-12-04T02:52:29.193Z,34.80
2022-12-04T02:53:29.206Z,33.70
2022-12-04T02:54:29.207Z,31.60
2022-12-04T02:55:29.164Z,32.10
2022-12-04T02:56:29.156Z,34.90
2022-12-04T02:57:29.128Z,34.20
2022-12-04T02:58:29.164Z,32.90
2022-12-04T02:59:29.136Z,33.00
2022-12-04T03:00:29.115Z,30.80
2022-12-04T03:01:29.174Z,30.30
2022-12-04T03:02:29.178Z,33.90
2022-12-04T03:03:29.069Z,33.70
2022-12-04T03:04:29.072Z,35.10
2022-12-04T03:05:29.095Z,32.20
2022-12-04T03:06:29.065Z,34.10
2022-12-04T03:07:29.083Z,31.50
2022-12-04T03:08:29.034Z,33.30
2022-12-04T03:09:29.048Z,33.80
2022-12-04T03:10:29.012Z,31.00
2022-12-04T03:11:29.029Z,29.80
2022-12-04T03:12:28.985Z,32.40
2022-12-04T03:13:28.971Z,33.70
2022-12-04T03:14:28.957Z,34.70
2022-12-04T03:15:28.981Z,36.40
2022-12-04T03:16:29.003Z,38.20
2022-12-04T03:17:28.933Z,36.50
2022-12-04T03:18:28.929Z,37.70
2022-12-04T03:19:28.916Z,39.00
2022-12-04T03:20:28.908Z,36.40
2022-12-04T03:21:29.906Z,39.10
2022-12-04T03:22:28.876Z,40.20
2022-12-04T03:23:28.881Z,39.70
2022-12-04T03:24:28.858Z,40.50
2022-12-04T03:25:28.840Z,40.30
2022-12-04T03:26:28.837Z,42.30
2022-12-04T03:27:28.815Z,40.90
2022-12-04T03:28:28.801Z,37.90
2022-12-04T03:29:28.785Z,43.80
2022-12-04T03:30:28.808Z,41.80
2022-12-04T03:31:28.784Z,43.50
2022-12-04T03:32:28.758Z,39.20
2022-12-04T03:33:28.797Z,38.90
2022-12-04T03:34:28.740Z,41.10
2022-12-04T03:35:28.726Z,41.90
2022-12-04T03:36:28.725Z,41.70
2022-12-04T03:37:28.727Z,43.50
2022-12-04T03:38:28.699Z,42.80
2022-12-04T03:39:28.752Z,40.10
2022-12-04T03:40:28.681Z,43.60
2022-12-04T03:41:28.675Z,41.70
2022-12-04T03:42:28.669Z,44.10
2022-12-04T03:43:28.648Z,43.10
2022-12-04T03:44:28.642Z,43.90
2022-12-04T03:45:28.627Z,44.60
2022-12-04T03:46:28.677Z,41.60
2022-12-04T03:47:28.646Z,42.00
2022-12-04T03:48:28.591Z,45.30
2022-12-04T03:49:28.588Z,45.90
2022-12-04T03:50:28.562Z,43.00
2022-12-04T03:51:28.570Z,41.00
2022-12-04T03:52:28.586Z,42.20
2022-12-04T03:53:28.542Z,42.10
2022-12-04T03:54:28.539Z,44.80
2022-12-04T03:55:28.550Z,45.00
2022-12-04T03:56:28.501Z,43.30
2022-12-04T03:57:28.505Z,43.00
2022-12-04T03:58:28.487Z,45.40
2022-12-04T03:59:28.474Z,47.50
2022-12-04T04:00:28.458Z,46.60
2022-12-04T04:01:28.463Z,45.90
2022-12-04T04:02:28.488Z,46.90
2022-12-04T04:03:28.425Z,47.20
2022-12-04T04:04:28.406Z,46.30
2022-12-04T04:05:28.385Z,50.00
2022-12-04T04:06:28.410Z,52.20
2022-12-04T04:07:33.541Z,50.30
2022-12-04T04:08:30.391Z,47.70
2022-12-04T04:09:28.357Z,49.70
2022-12-04T04:10:28.463Z,46.00
2022-12-04T04:11:28.342Z,50.00
2022-12-04T04:12:28.360Z,55.30
2022-12-04T04:13:28.349Z,52.70
2022-12-04T04:14:28.326Z,52.10
2022-12-04T04:15:28.377Z,52.30
2022-12-04T04:16:28.318Z,52.90
2022-12-04T04:17:29.680Z,56.60
2022-12-04T04:18:28.277Z,53.20
2022-12-04T04:19:28.245Z,53.70
2022-12-04T04:20:28.230Z,48.50
2022-12-04T04:21:28.231Z,47.00
2022-12-04T04:22:28.226Z,45.10
2022-12-04T04:23:28.199Z,44.60
2022-12-04T04:24:28.221Z,47.50
2022-12-04T04:25:28.186Z,46.10
2022-12-04T04:26:28.162Z,50.80
2022-12-04T04:27:28.146Z,51.80
2022-12-04T04:28:28.141Z,49.40
2022-12-04T04:29:28.148Z,47.70
2022-12-04T04:30:28.132Z,52.70
2022-12-04T04:31:28.200Z,48.40
2022-12-04T04:32:28.095Z,47.00
2022-12-04T04:33:28.085Z,48.50
2022-12-04T04:34:28.080Z,51.50
2022-12-04T04:35:28.096Z,49.80
2022-12-04T04:36:28.056Z,48.10
2022-12-04T04:37:28.036Z,51.10
2022-12-04T04:38:28.038Z,50.90
2022-12-04T04:39:28.021Z,52.20
2022-12-04T04:40:28.037Z,52.20
2022-12-04T04:41:27.997Z,54.20
2022-12-04T04:42:27.972Z,51.30
2022-12-04T04:43:27.974Z,51.20
2022-12-04T04:44:27.963Z,53.20
2022-12-04T04:45:27.947Z,51.00
2022-12-04T04:46:27.987Z,52.80
2022-12-04T04:47:27.936Z,52.30
2022-12-04T04:48:27.916Z,51.40
2022-12-04T04:49:27.900Z,51.90
2022-12-04T04:50:27.908Z,55.00
2022-12-04T04:51:27.922Z,55.30
2022-12-04T04:52:27.889Z,52.20
2022-12-04T04:53:27.993Z,51.60
2022-12-04T04:54:27.901Z,56.60
2022-12-04T04:55:27.866Z,53.10
2022-12-04T04:56:27.841Z,56.80
2022-12-04T04:57:28.182Z,56.60
2022-12-04T04:58:27.927Z,55.70
2022-12-04T04:59:27.813Z,52.60
2022-12-04T05:00:27.805Z,53.50
2022-12-04T05:01:27.980Z,53.90
2022-12-04T05:02:27.896Z,56.50
2022-12-04T05:03:28.421Z,54.60
2022-12-04T05:04:27.773Z,55.50
2022-12-04T05:05:27.761Z,53.80
2022-12-04T05:06:27.732Z,56.30
2022-12-04T05:07:27.780Z,52.60
2022-12-04T05:08:27.700Z,56.10
2022-12-04T05:09:27.695Z,55.00
2022-12-04T05:10:27.676Z,55.30
2022-12-04T05:11:27.685Z,57.20
2022-12-04T05:12:27.664Z,57.80
2022-12-04T05:13:27.664Z,53.40
2022-12-04T05:14:27.632Z,54.50
2022-12-04T05:15:27.664Z,52.60
2022-12-04T05:16:27.700Z,51.10
2022-12-04T05:17:27.613Z,46.60
2022-12-04T05:18:27.593Z,49.40
2022-12-04T05:19:27.596Z,49.00
2022-12-04T05:20:27.609Z,50.60
2022-12-04T05:21:27.608Z,54.80
2022-12-04T05:22:27.557Z,52.50
2022-12-04T05:23:27.548Z,51.90
2022-12-04T05:24:27.529Z,53.60
2022-12-04T05:25:27.528Z,53.10
2022-12-04T05:26:27.560Z,49.70
2022-12-04T05:27:27.491Z,51.80
2022-12-04T05:28:27.486Z,52.60
2022-12-04T05:29:30.493Z,52.10
2022-12-04T05:30:28.454Z,50.70
2022-12-04T05:31:27.539Z,55.00
2022-12-04T05:32:27.463Z,53.40
2022-12-04T05:33:27.421Z,51.00
2022-12-04T05:34:27.434Z,47.40
2022-12-04T05:35:27.424Z,47.30
2022-12-04T05:36:27.419Z,47.20
2022-12-04T05:37:27.435Z,46.60
2022-12-04T05:38:27.382Z,47.30
2022-12-04T05:39:27.362Z,48.80
2022-12-04T05:40:27.367Z,50.30
2022-12-04T05:41:27.358Z,47.80
2022-12-04T05:42:27.364Z,48.50
2022-12-04T05:43:27.322Z,48.20
2022-12-04T05:44:27.320Z,49.20
2022-12-04T05:45:27.331Z,50.40
2022-12-04T05:46:27.338Z,50.40
2022-12-04T05:47:27.282Z,48.60
2022-12-04T05:48:27.284Z,50.40
2022-12-04T05:49:27.844Z,49.50
2022-12-04T05:50:27.238Z,47.80
2022-12-04T05:51:27.232Z,47.60
2022-12-04T05:52:27.238Z,50.70
2022-12-04T05:53:27.237Z,47.30
2022-12-04T05:54:27.198Z,45.30
2022-12-04T05:55:27.199Z,45.20
2022-12-04T05:56:27.174Z,48.80
2022-12-04T05:57:29.993Z,43.30
2022-12-04T05:58:27.148Z,43.80
2022-12-04T05:59:27.204Z,43.60
2022-12-04T06:00:27.147Z,44.40
2022-12-04T06:01:27.156Z,45.00
2022-12-04T06:02:27.185Z,45.50
2022-12-04T06:03:27.169Z,43.10
2022-12-04T06:04:28.117Z,45.20
2022-12-04T06:05:27.086Z,41.00
2022-12-04T06:06:27.075Z,44.50
2022-12-04T06:07:27.144Z,45.20
2022-12-04T06:08:27.056Z,44.10
2022-12-04T06:09:27.025Z,45.70
2022-12-04T06:10:27.035Z,41.90
2022-12-04T06:11:27.014Z,41.80
2022-12-04T06:12:27.015Z,41.10
2022-12-04T06:13:27.005Z,43.40
2022-12-04T06:14:26.988Z,42.50
2022-12-04T06:15:26.976Z,42.60
2022-12-04T06:16:27.041Z,44.60
2022-12-04T06:17:26.964Z,43.30
2022-12-04T06:18:26.965Z,43.20
2022-12-04T06:19:26.933Z,41.60
2022-12-04T06:20:26.952Z,45.10
2022-12-04T06:21:27.396Z,43.50
2022-12-04T06:22:26.921Z,40.90
2022-12-04T06:23:26.898Z,44.70
2022-12-04T06:24:26.880Z,43.00
2022-12-04T06:25:26.868Z,44.30
2022-12-04T06:26:26.874Z,48.30
2022-12-04T06:27:28.197Z,46.80
2022-12-04T06:28:27.870Z,43.40
2022-12-04T06:29:26.851Z,41.90
2022-12-04T06:30:26.809Z,42.30
2022-12-04T06:31:26.834Z,44.90
2022-12-04T06:32:26.801Z,42.10
2022-12-04T06:33:26.789Z,41.60
2022-12-04T06:34:26.781Z,42.80
2022-12-04T06:35:26.771Z,40.70
2022-12-04T06:36:26.776Z,40.50
2022-12-04T06:37:26.737Z,42.50
2022-12-04T06:38:26.743Z,44.80
2022-12-04T06:39:26.773Z,43.20
2022-12-04T06:40:26.696Z,45.40
2022-12-04T06:41:26.792Z,39.60
2022-12-04T06:42:26.673Z,44.70
2022-12-04T06:43:27.703Z,45.50
2022-12-04T06:44:26.658Z,43.30
2022-12-04T06:45:26.711Z,44.80
2022-12-04T06:46:26.720Z,45.40
2022-12-04T06:47:26.622Z,40.30
2022-12-04T06:48:26.642Z,42.50
2022-12-04T06:49:26.609Z,41.70
2022-12-04T06:50:26.589Z,44.80
2022-12-04T06:51:26.586Z,45.00
2022-12-04T06:52:26.565Z,43.40
2022-12-04T06:53:26.562Z,42.60
2022-12-04T06:54:26.585Z,41.00
2022-12-04T06:55:26.553Z,37.80
2022-12-04T06:56:26.554Z,41.00
2022-12-04T06:57:26.866Z,40.30
2022-12-04T06:58:26.516Z,39.40
2022-12-04T06:59:26.519Z,39.00
2022-12-04T07:00:26.488Z,38.60
2022-12-04T07:01:26.605Z,41.00
2022-12-04T07:02:26.586Z,38.70
2022-12-04T07:03:26.452Z,42.40
2022-12-04T07:04:26.484Z,39.90
2022-12-04T07:05:26.426Z,34.90
2022-12-04T07:06:26.432Z,35.10
2022-12-04T07:07:26.399Z,34.80
2022-12-04T07:08:26.435Z,36.40
2022-12-04T07:09:26.392Z,33.00
2022-12-04T07:10:26.362Z,34.60
2022-12-04T07:11:26.360Z,36.40
2022-12-04T07:12:26.360Z,37.20
2022-12-04T07:13:26.391Z,34.80
2022-12-04T07:14:26.338Z,33.40
2022-12-04T07:15:26.323Z,32.60
2022-12-04T07:16:26.423Z,33.20
2022-12-04T07:17:26.299Z,36.20
2022-12-04T07:18:26.299Z,35.50
2022-12-04T07:19:26.284Z,36.50
2022-12-04T07:20:26.255Z,34.00
2022-12-04T07:21:26.272Z,37.70
2022-12-04T07:22:27.351Z,31.80
2022-12-04T07:23:26.236Z,34.10
2022-12-04T07:24:26.258Z,34.90
2022-12-04T07:25:26.209Z,37.20
2022-12-04T07:26:26.208Z,35.10
2022-12-04T07:27:26.208Z,37.70
2022-12-04T07:28:26.173Z,35.70
2022-12-04T07:29:26.172Z,34.90
2022-12-04T07:30:26.210Z,32.80
2022-12-04T07:31:26.198Z,34.40
2022-12-04T07:32:26.152Z,33.20
2022-12-04T07:33:26.156Z,36.00
2022-12-04T07:34:26.105Z,33.10
2022-12-04T07:35:26.124Z,34.40
2022-12-04T07:36:26.104Z,34.90
2022-12-04T07:37:26.157Z,33.60
2022-12-04T07:38:26.060Z,33.40
2022-12-04T07:39:26.048Z,35.50
2022-12-04T07:40:26.036Z,35.10
2022-12-04T07:41:26.052Z,35.80
2022-12-04T07:42:26.049Z,35.80
2022-12-04T07:43:26.752Z,35.30
2022-12-04T07:44:26.080Z,35.70
2022-12-04T07:45:26.028Z,35.50
2022-12-04T07:46:26.293Z,35.30
2022-12-04T07:47:25.992Z,35.80
2022-12-04T07:48:31.770Z,33.70
2022-12-04T07:49:27.943Z,34.90
2022-12-04T07:50:25.937Z,33.60
2022-12-04T07:51:25.950Z,35.60
2022-12-04T07:52:25.970Z,31.60
2022-12-04T07:53:25.917Z,31.80
2022-12-04T07:54:25.879Z,34.90
2022-12-04T07:55:26.069Z,35.30
2022-12-04T07:56:25.927Z,37.50
2022-12-04T07:57:25.901Z,34.80
2022-12-04T07:58:25.866Z,36.90
2022-12-04T07:59:25.839Z,36.90
2022-12-04T08:00:25.851Z,40.10
2022-12-04T08:01:25.920Z,40.70
2022-12-04T08:02:25.800Z,37.40
2022-12-04T08:03:25.814Z,41.90
2022-12-04T08:04:25.804Z,40.30
2022-12-04T08:05:25.758Z,36.50
2022-12-04T08:06:25.754Z,37.80
2022-12-04T08:07:25.746Z,34.50
2022-12-04T08:08:25.828Z,36.20
2022-12-04T08:09:25.757Z,37.10
2022-12-04T08:10:25.711Z,41.70
2022-12-04T08:11:25.731Z,37.40
2022-12-04T08:12:25.778Z,38.80
2022-12-04T08:13:26.293Z,37.00
2022-12-04T08:14:25.689Z,36.00
2022-12-04T08:15:25.682Z,35.60
2022-12-04T08:16:25.708Z,32.50
2022-12-04T08:17:25.759Z,33.30
2022-12-04T08:18:25.667Z,33.40
2022-12-04T08:19:25.609Z,37.90
2022-12-04T08:20:25.643Z,40.40
2022-12-04T08:21:25.607Z,36.40
2022-12-04T08:22:27.336Z,43.00
2022-12-04T08:23:25.585Z,39.80
2022-12-04T08:24:25.623Z,42.70
2022-12-04T08:25:25.542Z,44.60
2022-12-04T08:26:25.578Z,44.70
2022-12-04T08:27:25.572Z,48.50
2022-12-04T08:28:25.500Z,47.60
2022-12-04T08:29:25.569Z,47.40
2022-12-04T08:30:25.480Z,47.80
2022-12-04T08:31:25.559Z,46.60
2022-12-04T08:32:25.505Z,49.50
2022-12-04T08:33:25.467Z,49.20
2022-12-04T08:34:25.437Z,44.00
2022-12-04T08:35:25.444Z,48.40
2022-12-04T08:36:25.473Z,48.20
2022-12-04T08:37:25.422Z,47.00
2022-12-04T08:38:25.435Z,47.30
2022-12-04T08:39:25.427Z,52.20
2022-12-04T08:40:25.366Z,50.20
2022-12-04T08:41:25.360Z,49.10
2022-12-04T08:42:26.214Z,51.30
2022-12-04T08:43:25.373Z,48.50
2022-12-04T08:44:25.450Z,51.80
2022-12-04T08:45:25.339Z,50.10
2022-12-04T08:46:25.472Z,50.10
2022-12-04T08:47:25.467Z,53.00
2022-12-04T08:48:25.326Z,47.80
2022-12-04T08:49:25.317Z,51.70
2022-12-04T08:50:25.442Z,49.90
2022-12-04T08:51:25.250Z,49.20
2022-12-04T08:52:25.315Z,50.10
2022-12-04T08:53:25.228Z,50.00
2022-12-04T08:54:25.246Z,51.10
2022-12-04T08:55:25.239Z,48.50
2022-12-04T08:56:25.212Z,50.10
2022-12-04T08:57:25.931Z,49.10
2022-12-04T08:58:25.182Z,48.00
2022-12-04T08:59:25.191Z,48.40
2022-12-04T09:00:25.220Z,50.70
2022-12-04T09:01:25.226Z,45.60
2022-12-04T09:02:25.188Z,45.50
2022-12-04T09:03:30.682Z,44.70
2022-12-04T09:04:27.272Z,44.50
2022-12-04T09:05:25.837Z,45.60
2022-12-04T09:06:25.306Z,44.10
2022-12-04T09:07:25.083Z,45.80
2022-12-04T09:08:25.163Z,50.00
2022-12-04T09:09:25.108Z,47.50
2022-12-04T09:10:25.121Z,49.60
2022-12-04T09:11:25.069Z,45.90
2022-12-04T09:12:25.084Z,47.20
2022-12-04T09:13:25.020Z,51.10
2022-12-04T09:14:25.894Z,47.50
2022-12-04T09:15:24.991Z,49.60
2022-12-04T09:16:25.135Z,48.10
2022-12-04T09:17:24.964Z,49.30
2022-12-04T09:18:24.993Z,45.20
2022-12-04T09:19:24.981Z,48.50
2022-12-04T09:20:24.953Z,48.80
2022-12-04T09:21:24.960Z,49.00
2022-12-04T09:22:24.943Z,48.80
2022-12-04T09:23:25.060Z,48.00
2022-12-04T09:24:25.661Z,49.00
2022-12-04T09:25:24.886Z,48.70
2022-12-04T09:26:24.872Z,45.20
2022-12-04T09:27:24.851Z,48.30
2022-12-04T09:28:25.252Z,46.00
2022-12-04T09:29:24.851Z,48.20
2022-12-04T09:30:24.843Z,48.10
2022-12-04T09:31:24.866Z,49.40
2022-12-04T09:32:24.797Z,50.30
2022-12-04T09:33:24.822Z,46.10
2022-12-04T09:34:24.828Z,47.90
2022-12-04T09:35:24.758Z,49.70
2022-12-04T09:36:24.790Z,46.90
2022-12-04T09:37:24.750Z,46.80
2022-12-04T09:38:24.781Z,52.10
2022-12-04T09:39:25.283Z,47.60
2022-12-04T09:40:24.798Z,47.30
2022-12-04T09:41:24.698Z,47.20
2022-12-04T09:42:24.706Z,48.40
2022-12-04T09:43:24.682Z,46.90
2022-12-04T09:44:25.278Z,49.90
2022-12-04T09:45:25.720Z,54.90
2022-12-04T09:46:24.678Z,44.70
2022-12-04T09:47:24.657Z,48.50
2022-12-04T09:48:24.646Z,50.20
2022-12-04T09:49:24.623Z,47.90
2022-12-04T09:50:24.740Z,51.50
2022-12-04T09:51:24.955Z,53.00
2022-12-04T09:52:24.587Z,50.20
2022-12-04T09:53:24.582Z,48.80
2022-12-04T09:54:24.577Z,48.70
2022-12-04T09:55:24.692Z,49.30
2022-12-04T09:56:24.613Z,48.20
2022-12-04T09:57:24.535Z,52.60
2022-12-04T09:58:24.543Z,46.00
2022-12-04T09:59:24.494Z,51.20
2022-12-04T10:00:25.511Z,49.70
2022-12-04T10:01:24.536Z,48.70
2022-12-04T10:02:24.665Z,46.10
2022-12-04T10:03:24.672Z,45.70
2022-12-04T10:04:24.593Z,42.60
2022-12-04T10:05:24.457Z,46.70
2022-12-04T10:06:24.461Z,47.60
2022-12-04T10:07:24.442Z,51.30
2022-12-04T10:08:24.531Z,48.40
2022-12-04T10:09:24.527Z,52.10
2022-12-04T10:10:24.576Z,49.00
2022-12-04T10:11:29.184Z,45.00
2022-12-04T10:12:25.410Z,49.40
2022-12-04T10:13:24.410Z,47.00
2022-12-04T10:14:24.399Z,46.70
2022-12-04T10:15:24.350Z,46.20
2022-12-04T10:16:24.370Z,45.80
2022-12-04T10:17:27.977Z,46.30
2022-12-04T10:18:26.542Z,46.00
2022-12-04T10:19:24.310Z,46.60
2022-12-04T10:20:24.314Z,48.00
2022-12-04T10:21:24.327Z,51.40
2022-12-04T10:22:24.342Z,45.80
2022-12-04T10:23:24.255Z,46.30
2022-12-04T10:24:24.249Z,50.10
2022-12-04T10:25:24.224Z,49.20
2022-12-04T10:26:24.237Z,48.50
2022-12-04T10:27:24.219Z,48.30
2022-12-04T10:28:24.208Z,51.70
2022-12-04T10:29:24.183Z,49.90
2022-12-04T10:30:24.227Z,50.20
2022-12-04T10:31:24.256Z,51.10
2022-12-04T10:32:24.316Z,51.20
2022-12-04T10:33:24.183Z,53.30
2022-12-04T10:34:24.125Z,51.20
2022-12-04T10:35:24.220Z,51.10
2022-12-04T10:36:24.144Z,51.90
2022-12-04T10:37:24.099Z,50.10
2022-12-04T10:38:24.072Z,49.40
2022-12-04T10:39:24.097Z,51.30
2022-12-04T10:40:24.101Z,48.00
2022-12-04T10:41:24.104Z,54.10
2022-12-04T10:42:24.054Z,50.50
2022-12-04T10:43:24.037Z,50.80
2022-12-04T10:44:24.012Z,54.80
2022-12-04T10:45:24.044Z,47.30
2022-12-04T10:46:24.043Z,45.00
2022-12-04T10:47:24.041Z,51.70
2022-12-04T10:48:24.024Z,53.60
2022-12-04T10:49:24.030Z,50.50
2022-12-04T10:50:23.969Z,47.20
2022-12-04T10:51:23.957Z,51.00
2022-12-04T10:52:23.961Z,47.20
2022-12-04T10:53:23.974Z,52.50
2022-12-04T10:54:23.968Z,49.10
2022-12-04T10:55:23.896Z,50.10
2022-12-04T10:56:23.896Z,48.90
2022-12-04T10:57:23.940Z,50.50
2022-12-04T10:58:23.942Z,51.60
2022-12-04T10:59:23.864Z,51.00
2022-12-04T11:00:23.865Z,53.60
2022-12-04T11:01:23.959Z,50.00
2022-12-04T11:02:23.974Z,53.20
2022-12-04T11:03:23.963Z,50.60
2022-12-04T11:04:23.788Z,50.70
2022-12-04T11:05:24.789Z,49.80
2022-12-04T11:06:23.773Z,53.00
2022-12-04T11:07:23.779Z,49.50
2022-12-04T11:08:24.934Z,51.00
2022-12-04T11:09:24.756Z,49.90
2022-12-04T11:10:24.404Z,47.10
2022-12-04T11:11:29.411Z,48.20
2022-12-04T11:12:24.351Z,53.20
2022-12-04T11:13:23.699Z,51.60
2022-12-04T11:14:23.716Z,50.30
2022-12-04T11:15:23.695Z,53.20
2022-12-04T11:16:23.751Z,56.00
2022-12-04T11:17:26.167Z,52.90
2022-12-04T11:18:23.732Z,51.80
2022-12-04T11:19:23.682Z,49.20
2022-12-04T11:20:23.636Z,52.10
2022-12-04T11:21:23.631Z,49.90
2022-12-04T11:22:23.611Z,51.90
2022-12-04T11:23:23.635Z,49.00
2022-12-04T11:24:23.662Z,50.80
2022-12-04T11:25:23.579Z,53.70
2022-12-04T11:26:23.572Z,51.30
2022-12-04T11:27:23.576Z,54.20
2022-12-04T11:28:40.573Z,52.70
2022-12-04T11:29:26.391Z,48.50
2022-12-04T11:30:23.556Z,53.70
2022-12-04T11:31:23.685Z,47.30
2022-12-04T11:32:23.547Z,54.70
2022-12-04T11:33:23.495Z,51.10
2022-12-04T11:34:23.483Z,52.20
2022-12-04T11:35:23.483Z,53.80
2022-12-04T11:36:23.535Z,51.60
2022-12-04T11:37:23.446Z,51.30
2022-12-04T11:38:23.437Z,52.30
2022-12-04T11:39:23.438Z,53.30
2022-12-04T11:40:23.433Z,47.60
2022-12-04T11:41:23.452Z,49.80
2022-12-04T11:42:23.410Z,53.00
2022-12-04T11:43:23.413Z,51.40
2022-12-04T11:44:23.425Z,52.10
2022-12-04T11:45:23.826Z,50.00
2022-12-04T11:46:23.571Z,50.30
2022-12-04T11:47:23.322Z,56.10
2022-12-04T11:48:24.128Z,53.30
2022-12-04T11:49:23.314Z,51.10
2022-12-04T11:50:23.306Z,53.70
2022-12-04T11:51:23.292Z,51.10
2022-12-04T11:52:23.304Z,52.40
2022-12-04T11:53:23.349Z,53.30
2022-12-04T11:54:24.292Z,49.70
2022-12-04T11:55:28.469Z,52.30
2022-12-04T11:56:25.297Z,54.90
2022-12-04T11:57:23.230Z,50.90
2022-12-04T11:58:23.213Z,49.10
2022-12-04T11:59:23.273Z,52.40
2022-12-04T12:00:23.224Z,54.90
2022-12-04T12:01:23.221Z,52.30
2022-12-04T12:02:23.438Z,54.50
2022-12-04T12:03:23.346Z,56.10
2022-12-04T12:04:23.563Z,56.60
2022-12-04T12:05:23.178Z,54.50
2022-12-04T12:06:23.144Z,55.90
2022-12-04T12:07:23.120Z,57.00
2022-12-04T12:08:23.124Z,55.40
2022-12-04T12:09:24.664Z,54.90
2022-12-04T12:10:23.097Z,52.80
2022-12-04T12:11:23.121Z,51.70
2022-12-04T12:12:23.079Z,51.20
2022-12-04T12:13:23.150Z,50.80
2022-12-04T12:14:23.069Z,52.60
2022-12-04T12:15:23.030Z,52.90
2022-12-04T12:16:23.201Z,51.70
2022-12-04T12:17:23.175Z,55.20
2022-12-04T12:18:23.166Z,49.60
2022-12-04T12:19:23.016Z,55.30
2022-12-04T12:20:22.970Z,51.30
2022-12-04T12:21:24.337Z,55.70
2022-12-04T12:22:22.985Z,54.10
2022-12-04T12:23:24.102Z,54.20
2022-12-04T12:24:23.799Z,55.20
2022-12-04T12:25:22.943Z,52.40
2022-12-04T12:26:23.806Z,53.30
2022-12-04T12:27:22.906Z,53.50
2022-12-04T12:28:23.060Z,51.50
2022-12-04T12:29:22.912Z,54.70
2022-12-04T12:30:22.897Z,55.20
2022-12-04T12:31:23.179Z,51.90
2022-12-04T12:32:22.894Z,56.10
2022-12-04T12:33:23.059Z,59.50
2022-12-04T12:34:23.070Z,55.50
2022-12-04T12:35:22.815Z,53.20
2022-12-04T12:36:22.910Z,54.70
2022-12-04T12:37:22.787Z,52.00
2022-12-04T12:38:23.042Z,61.50
2022-12-04T12:39:22.827Z,53.30
2022-12-04T12:40:22.795Z,57.00
2022-12-04T12:41:22.760Z,55.70
2022-12-04T12:42:22.774Z,58.40
2022-12-04T12:43:22.806Z,60.40
2022-12-04T12:44:22.795Z,56.30
2022-12-04T12:45:22.716Z,52.10
2022-12-04T12:46:22.767Z,56.90
2022-12-04T12:47:22.743Z,59.40
2022-12-04T12:48:22.710Z,54.00
2022-12-04T12:49:22.698Z,56.30
2022-12-04T12:50:22.653Z,54.00
2022-12-04T12:51:30.933Z,55.80
2022-12-04T12:52:24.651Z,56.90